Time;durP1;ratioP1;P1;durP2;ratioP2;P2;SDS_P1;SDS_P2;PMS_P1;PMS_P2;Temp;Humidity;BMP_temperature;BMP_pressure;BME280_temperature;BME280_humidity;BME280_pressure;Samples;Min_cycle;Max_cycle;Signal;HPM_P1;HPM_P2
2023/03/14 00:00:15;;;;;;;12.52;3.15;;;9.80;99.90;;;;;;4982421;28;20088;-71
2023/03/14 00:02:41;;;;;;;13.82;3.20;;;9.80;99.90;;;;;;4997728;28;20050;-71
2023/03/14 00:05:08;;;;;;;13.47;4.00;;;9.80;99.90;;;;;;4976612;28;20061;-71
2023/03/14 00:07:38;;;;;;;14.18;3.35;;;9.80;99.90;;;;;;4987888;28;20031;-71
2023/03/14 00:10:06;;;;;;;15.40;2.42;;;9.80;99.90;;;;;;4994177;28;20455;-70
2023/03/14 00:12:32;;;;;;;18.60;2.90;;;9.80;99.90;;;;;;4981192;28;20179;-70
2023/03/14 00:15:03;;;;;;;12.03;2.53;;;9.80;99.90;;;;;;4986493;28;20627;-70
2023/03/14 00:17:32;;;;;;;17.10;3.58;;;9.80;99.90;;;;;;4977626;28;20056;-70
2023/03/14 00:20:04;;;;;;;13.73;3.17;;;9.80;99.90;;;;;;4985229;28;20121;-70
2023/03/14 00:22:30;;;;;;;21.30;3.53;;;9.80;99.90;;;;;;4996885;28;20057;-70
2023/03/14 00:24:56;;;;;;;16.33;2.38;;;9.80;99.90;;;;;;5000321;28;20057;-70
2023/03/14 00:27:21;;;;;;;11.77;2.63;;;9.80;99.90;;;;;;4979891;28;20509;-71
2023/03/14 00:29:47;;;;;;;10.50;3.20;;;9.80;99.90;;;;;;4984406;28;20128;-70
2023/03/14 00:32:12;;;;;;;12.13;2.83;;;9.90;99.90;;;;;;4978272;28;20164;-71
2023/03/14 00:34:39;;;;;;;11.47;3.00;;;9.80;99.90;;;;;;4983406;28;20045;-70
2023/03/14 00:37:05;;;;;;;10.60;2.85;;;9.80;99.90;;;;;;4976680;28;20132;-70
2023/03/14 00:39:31;;;;;;;13.10;3.17;;;9.80;99.90;;;;;;4995452;28;20045;-71
2023/03/14 00:41:56;;;;;;;12.27;2.27;;;9.80;99.90;;;;;;4975468;28;20061;-70
2023/03/14 00:44:22;;;;;;;13.97;2.90;;;9.70;99.90;;;;;;4983260;28;20399;-70
2023/03/14 00:46:48;;;;;;;16.43;2.70;;;9.80;99.90;;;;;;4984260;28;20164;-70
2023/03/14 00:49:13;;;;;;;13.90;2.37;;;9.70;99.90;;;;;;4996934;28;20218;-70
2023/03/14 00:51:39;;;;;;;16.47;3.17;;;9.80;99.90;;;;;;5000062;28;20054;-70
2023/03/14 00:54:04;;;;;;;10.93;2.27;;;9.80;99.90;;;;;;4997081;28;20391;-70
2023/03/14 00:56:30;;;;;;;11.60;2.07;;;9.80;99.90;;;;;;4980353;28;20092;-70
2023/03/14 00:58:56;;;;;;;17.02;3.17;;;9.80;99.90;;;;;;4979912;28;20049;-70
2023/03/14 01:01:22;;;;;;;14.93;1.95;;;9.80;99.90;;;;;;4996532;28;20471;-70
2023/03/14 01:03:52;;;;;;;11.95;2.10;;;9.80;99.90;;;;;;4985251;28;20041;-70
2023/03/14 01:06:20;;;;;;;11.55;2.13;;;9.90;99.90;;;;;;4986604;28;20538;-70
2023/03/14 01:08:46;;;;;;;8.20;1.73;;;10.00;99.90;;;;;;4979366;28;20512;-70
2023/03/14 01:11:16;;;;;;;12.07;2.75;;;10.00;99.90;;;;;;4978360;28;20042;-70
2023/03/14 01:13:42;;;;;;;11.40;2.58;;;10.10;99.90;;;;;;4996131;28;20108;-70
2023/03/14 01:16:10;;;;;;;15.93;3.30;;;10.10;99.90;;;;;;4997020;28;20049;-70
2023/03/14 01:18:37;;;;;;;10.82;1.83;;;10.10;99.90;;;;;;4982911;28;20417;-70
2023/03/14 01:21:24;;;;;;;8.93;1.90;;;10.20;99.90;;;;;;4979205;28;20049;-70
2023/03/14 01:23:51;;;;;;;9.87;1.97;;;10.20;99.90;;;;;;4974722;28;20064;-70
2023/03/14 01:26:19;;;;;;;11.73;1.90;;;10.20;99.90;;;;;;5002452;28;20034;-70
2023/03/14 01:28:46;;;;;;;7.35;2.25;;;10.30;99.90;;;;;;4984054;28;20113;-70
2023/03/14 01:31:13;;;;;;;12.00;1.75;;;10.20;99.90;;;;;;4980532;28;20511;-70
2023/03/14 01:33:39;;;;;;;5.85;1.88;;;10.20;99.90;;;;;;4982513;28;20049;-70
2023/03/14 01:36:06;;;;;;;10.68;2.28;;;10.20;99.90;;;;;;4983634;28;20046;-70
2023/03/14 01:38:32;;;;;;;;;;;10.20;99.90;;;;;;4998781;28;20104;-70
2023/03/14 01:41:01;;;;;;;8.52;2.13;;;10.20;99.90;;;;;;4963835;28;19917;-70
2023/03/14 01:43:27;;;;;;;6.03;2.17;;;10.20;99.90;;;;;;4977600;28;20070;-70
2023/03/14 01:46:04;;;;;;;11.03;1.80;;;10.20;99.90;;;;;;4982822;28;20042;-70
2023/03/14 01:48:48;;;;;;;8.10;1.67;;;10.20;99.90;;;;;;4978757;28;20280;-70
2023/03/14 01:51:27;;;;;;;11.07;1.67;;;10.10;99.90;;;;;;4983297;28;20462;-70
2023/03/14 01:54:00;;;;;;;10.10;2.25;;;10.10;99.90;;;;;;4971848;28;20152;-70
2023/03/14 01:56:26;;;;;;;11.15;1.40;;;10.00;99.90;;;;;;4981285;28;20046;-72
2023/03/14 01:58:52;;;;;;;11.50;1.48;;;10.00;99.90;;;;;;4999789;28;20072;-70
2023/03/14 02:01:21;;;;;;;10.00;1.50;;;9.90;99.90;;;;;;4998339;28;20038;-71
2023/03/14 02:03:53;;;;;;;6.60;1.55;;;9.90;99.90;;;;;;4999803;28;20042;-70
2023/03/14 02:06:23;;;;;;;15.88;1.70;;;9.90;99.90;;;;;;4973958;28;20053;-71
2023/03/14 02:08:49;;;;;;;8.52;1.80;;;9.80;99.90;;;;;;5001715;28;20041;-70
2023/03/14 02:11:16;;;;;;;6.90;1.15;;;9.90;99.90;;;;;;4990318;28;20447;-70
2023/03/14 02:13:43;;;;;;;6.30;1.95;;;9.90;99.90;;;;;;4978025;28;20062;-70
2023/03/14 02:16:08;;;;;;;;;;;9.80;99.90;;;;;;4961509;28;20178;-70
2023/03/14 02:18:34;;;;;;;5.32;1.58;;;9.80;99.90;;;;;;4977725;28;19925;-70
2023/03/14 02:21:16;;;;;;;3.97;0.83;;;9.80;99.90;;;;;;4982011;28;20122;-70
2023/03/14 02:23:58;;;;;;;5.22;1.00;;;9.80;99.90;;;;;;4978916;28;20054;-70
2023/03/14 02:26:59;;;;;;;10.27;1.67;;;9.80;99.90;;;;;;4982266;28;20121;-71
2023/03/14 02:29:25;;;;;;;11.98;1.30;;;9.80;99.90;;;;;;4964834;28;20198;-70
2023/03/14 02:31:51;;;;;;;8.20;1.83;;;9.80;99.90;;;;;;4978713;28;20057;-70
2023/03/14 02:34:17;;;;;;;6.77;1.60;;;9.70;99.90;;;;;;5001673;28;20041;-70
2023/03/14 02:36:42;;;;;;;4.03;1.00;;;9.70;99.90;;;;;;4985875;28;20245;-70
2023/03/14 02:39:15;;;;;;;7.53;1.47;;;9.70;99.90;;;;;;4984877;28;20470;-70
2023/03/14 02:41:42;;;;;;;8.57;1.40;;;9.70;99.90;;;;;;4986519;28;20411;-70
2023/03/14 02:44:08;;;;;;;7.82;1.52;;;9.60;99.90;;;;;;5003779;28;20038;-71
2023/03/14 02:46:33;;;;;;;5.10;1.53;;;9.60;99.90;;;;;;4982511;28;20484;-71
2023/03/14 02:49:07;;;;;;;7.85;1.27;;;9.50;99.90;;;;;;4983150;28;20037;-70
2023/03/14 02:51:33;;;;;;;4.63;1.17;;;9.50;99.90;;;;;;4985361;28;20046;-70
2023/03/14 02:53:59;;;;;;;13.00;1.63;;;9.40;99.90;;;;;;4978136;28;20331;-71
2023/03/14 02:56:24;;;;;;;9.63;1.50;;;9.40;99.90;;;;;;5001032;28;20057;-70
2023/03/14 02:58:50;;;;;;;5.93;1.53;;;9.30;99.90;;;;;;4985103;28;20099;-71
2023/03/14 03:01:15;;;;;;;7.47;1.50;;;9.30;99.90;;;;;;4984229;28;20042;-71
2023/03/14 03:03:41;;;;;;;8.70;1.90;;;9.20;99.90;;;;;;4995865;28;20129;-71
2023/03/14 03:06:07;;;;;;;9.43;1.80;;;9.20;99.90;;;;;;4996534;28;20033;-71
2023/03/14 03:08:33;;;;;;;7.87;1.50;;;9.10;99.90;;;;;;4979931;28;20042;-71
2023/03/14 03:10:59;;;;;;;8.38;1.70;;;9.20;99.90;;;;;;4985093;28;20045;-71
2023/03/14 03:13:25;;;;;;;12.82;1.50;;;9.20;99.90;;;;;;4980305;28;20050;-71
2023/03/14 03:15:53;;;;;;;13.68;3.00;;;9.20;99.90;;;;;;4984347;28;20049;-71
2023/03/14 03:18:19;;;;;;;10.02;2.47;;;9.10;99.90;;;;;;5003950;28;20057;-71
2023/03/14 03:20:47;;;;;;;14.50;3.15;;;9.10;99.90;;;;;;4977538;28;20142;-71
2023/03/14 03:23:15;;;;;;;9.50;1.60;;;9.10;99.90;;;;;;4979535;28;20136;-71
2023/03/14 03:25:41;;;;;;;5.25;1.48;;;9.10;99.90;;;;;;4986032;28;20197;-71
2023/03/14 03:28:09;;;;;;;5.47;1.95;;;9.00;99.90;;;;;;5002734;28;20038;-71
2023/03/14 03:30:41;;;;;;;7.40;1.97;;;9.10;99.90;;;;;;4964420;28;20119;-71
2023/03/14 03:33:07;;;;;;;11.48;2.17;;;9.10;99.90;;;;;;4984573;28;20042;-71
2023/03/14 03:35:33;;;;;;;18.63;2.97;;;9.10;99.90;;;;;;4982201;28;20077;-71
2023/03/14 03:37:59;;;;;;;12.07;1.93;;;9.00;99.90;;;;;;4982043;28;20077;-71
2023/03/14 03:40:24;;;;;;;13.17;1.97;;;9.10;99.90;;;;;;4992881;23;20295;-68
2023/03/14 03:42:51;;;;;;;13.47;2.40;;;9.00;99.90;;;;;;5002439;28;20403;-70
2023/03/14 03:45:16;;;;;;;13.68;2.20;;;9.00;99.90;;;;;;4983905;28;20048;-70
2023/03/14 03:47:42;;;;;;;11.77;2.10;;;9.00;99.90;;;;;;4999142;28;20480;-70
2023/03/14 03:50:10;;;;;;;15.67;2.17;;;9.00;99.90;;;;;;4983434;28;20044;-70
2023/03/14 03:52:36;;;;;;;11.50;1.80;;;9.00;99.90;;;;;;4967638;28;20053;-70
2023/03/14 03:55:12;;;;;;;10.13;2.07;;;9.10;99.90;;;;;;4978400;28;20043;-70
2023/03/14 03:57:37;;;;;;;17.85;2.95;;;9.10;99.90;;;;;;4985017;28;20049;-70
2023/03/14 04:00:05;;;;;;;11.10;2.63;;;9.10;99.90;;;;;;4983551;28;20046;-70
2023/03/14 04:02:31;;;;;;;16.40;3.05;;;9.10;99.90;;;;;;4999996;28;20042;-70
2023/03/14 04:04:56;;;;;;;14.17;1.77;;;9.10;99.90;;;;;;4964550;28;20507;-70
2023/03/14 04:07:22;;;;;;;16.53;4.20;;;9.10;99.90;;;;;;4985037;28;20038;-70
2023/03/14 04:09:50;;;;;;;14.90;2.17;;;9.10;99.90;;;;;;4983818;28;20041;-70
2023/03/14 04:12:16;;;;;;;10.82;2.33;;;9.10;99.90;;;;;;4999445;28;20034;-70
2023/03/14 04:14:48;;;;;;;9.40;1.73;;;9.10;99.90;;;;;;4998667;28;20034;-70
2023/03/14 04:17:16;;;;;;;12.13;2.85;;;9.10;99.90;;;;;;4981784;28;20045;-70
2023/03/14 04:19:42;;;;;;;15.70;1.70;;;9.10;99.90;;;;;;4982328;28;20069;-70
2023/03/14 04:22:08;;;;;;;10.07;2.33;;;9.10;99.90;;;;;;4986992;28;20079;-70
2023/03/14 04:24:34;;;;;;;14.05;2.22;;;9.00;99.90;;;;;;4982273;28;20500;-71
2023/03/14 04:27:00;;;;;;;13.88;2.13;;;9.00;99.90;;;;;;4981048;28;21543;-70
2023/03/14 04:29:25;;;;;;;11.07;2.67;;;9.00;99.90;;;;;;4999308;28;20046;-70
2023/03/14 04:31:51;;;;;;;10.73;2.63;;;9.00;99.90;;;;;;4997263;28;20125;-70
2023/03/14 04:34:17;;;;;;;13.43;2.37;;;8.90;99.90;;;;;;5001415;28;20042;-77
2023/03/14 04:36:42;;;;;;;11.60;2.57;;;8.90;99.90;;;;;;4999737;28;20069;-70
2023/03/14 04:39:09;;;;;;;12.33;1.87;;;9.00;99.90;;;;;;5002660;28;20046;-71
2023/03/14 04:41:35;;;;;;;21.08;2.38;;;8.90;99.90;;;;;;4997670;28;20049;-71
2023/03/14 04:44:04;;;;;;;9.27;2.05;;;8.90;99.90;;;;;;4983386;28;20038;-72
2023/03/14 04:46:30;;;;;;;12.47;2.47;;;9.00;99.90;;;;;;4980729;28;20074;-71
2023/03/14 04:48:56;;;;;;;10.23;2.50;;;8.90;99.90;;;;;;4995984;28;20053;-71
2023/03/14 04:51:23;;;;;;;9.85;2.20;;;9.00;99.90;;;;;;4982032;28;20067;-71
2023/03/14 04:53:49;;;;;;;12.07;3.42;;;8.90;99.90;;;;;;4978470;28;20409;-70
2023/03/14 04:56:14;;;;;;;10.57;2.20;;;8.90;99.90;;;;;;4998865;28;20050;-71
2023/03/14 04:58:40;;;;;;;8.53;2.77;;;8.80;99.90;;;;;;4979293;28;20329;-69
2023/03/14 05:01:06;;;;;;;8.17;2.90;;;8.90;99.90;;;;;;4982224;28;20042;-72
2023/03/14 05:03:32;;;;;;;11.07;2.88;;;8.80;99.90;;;;;;4986674;28;20574;-73
2023/03/14 05:05:58;;;;;;;13.47;2.73;;;8.80;99.90;;;;;;4997637;28;20045;-72
2023/03/14 05:08:24;;;;;;;7.80;2.33;;;8.80;99.90;;;;;;4985657;28;20245;-72
2023/03/14 05:10:57;;;;;;;8.98;2.50;;;8.80;99.90;;;;;;4978832;28;20056;-73
2023/03/14 05:13:23;;;;;;;6.45;1.88;;;8.80;99.90;;;;;;4986584;28;20602;-74
2023/03/14 05:15:51;;;;;;;7.05;2.13;;;8.80;99.90;;;;;;4998411;28;20186;-75
2023/03/14 05:18:18;;;;;;;6.13;2.35;;;8.80;99.90;;;;;;4982052;28;20034;-77
2023/03/14 05:20:44;;;;;;;10.23;2.25;;;8.80;99.90;;;;;;4984832;28;20041;-71
2023/03/14 05:23:09;;;;;;;6.45;2.25;;;8.80;99.90;;;;;;5000594;28;20050;-70
2023/03/14 05:25:35;;;;;;;4.75;1.90;;;8.80;99.90;;;;;;5001185;28;20514;-74
2023/03/14 05:28:01;;;;;;;8.03;3.10;;;8.70;99.90;;;;;;4994459;28;20045;-68
2023/03/14 05:30:28;;;;;;;6.18;2.17;;;8.80;99.90;;;;;;4987069;28;20044;-70
2023/03/14 05:32:53;;;;;;;3.60;1.90;;;8.70;99.90;;;;;;5003148;28;20046;-69
2023/03/14 05:35:19;;;;;;;8.07;2.40;;;8.80;99.90;;;;;;4993096;28;20112;-69
2023/03/14 05:37:45;;;;;;;3.40;1.80;;;8.80;99.90;;;;;;4983852;28;20357;-69
2023/03/14 05:40:13;;;;;;;5.65;1.90;;;8.80;99.90;;;;;;4998816;28;20379;-69
2023/03/14 05:42:39;;;;;;;6.70;1.60;;;8.80;99.90;;;;;;4970074;28;20097;-69
2023/03/14 05:45:05;;;;;;;6.87;1.97;;;8.80;99.90;;;;;;4985257;28;20041;-68
2023/03/14 05:47:31;;;;;;;5.35;1.65;;;8.80;99.90;;;;;;4984639;28;20060;-70
2023/03/14 05:49:56;;;;;;;6.17;2.20;;;8.80;99.90;;;;;;5002060;28;20507;-69
2023/03/14 05:52:22;;;;;;;6.57;2.50;;;8.90;99.90;;;;;;4998948;28;20112;-70
2023/03/14 05:54:47;;;;;;;6.57;2.27;;;8.80;99.90;;;;;;4982542;28;20046;-69
2023/03/14 05:57:13;;;;;;;4.77;2.13;;;8.70;99.90;;;;;;5003940;28;20557;-70
2023/03/14 05:59:39;;;;;;;4.43;1.70;;;8.80;99.90;;;;;;4982662;28;20113;-70
2023/03/14 06:02:04;;;;;;;3.67;1.50;;;8.80;99.90;;;;;;4980351;28;20303;-69
2023/03/14 06:04:30;;;;;;;6.83;1.93;;;8.90;99.90;;;;;;4993943;28;20132;-71
2023/03/14 06:06:56;;;;;;;5.87;1.93;;;8.80;99.90;;;;;;4995287;28;20204;-69
2023/03/14 06:09:23;;;;;;;7.10;1.67;;;8.80;99.90;;;;;;4997224;28;20041;-69
2023/03/14 06:11:49;;;;;;;3.25;1.40;;;8.80;99.90;;;;;;4993866;28;20066;-69
2023/03/14 06:14:17;;;;;;;5.68;2.03;;;8.70;99.90;;;;;;5000506;28;20492;-69
2023/03/14 06:16:47;;;;;;;7.68;1.48;;;8.80;99.90;;;;;;5001473;28;20484;-70
2023/03/14 06:19:13;;;;;;;3.67;1.85;;;8.80;99.90;;;;;;4979099;28;20042;-71
2023/03/14 06:21:39;;;;;;;6.37;1.33;;;8.70;99.90;;;;;;4978172;28;20052;-68
2023/03/14 06:24:07;;;;;;;7.63;1.40;;;8.60;99.90;;;;;;4995077;28;20041;-72
2023/03/14 06:26:32;;;;;;;7.10;0.90;;;8.40;99.90;;;;;;4982869;28;20144;-71
2023/03/14 06:29:03;;;;;;;7.67;1.20;;;8.20;99.90;;;;;;4981192;28;20038;-70
2023/03/14 06:31:30;;;;;;;9.50;1.10;;;7.80;99.90;;;;;;4980954;28;20125;-70
2023/03/14 06:33:55;;;;;;;5.10;0.80;;;7.60;99.90;;;;;;4997830;28;20385;-69
2023/03/14 06:36:21;;;;;;;3.75;0.65;;;7.30;99.90;;;;;;4961955;28;20127;-70
2023/03/14 06:38:47;;;;;;;2.50;0.70;;;7.20;99.90;;;;;;4980833;28;20151;-76
2023/03/14 06:41:12;;;;;;;3.83;0.80;;;7.00;99.90;;;;;;4982276;28;20038;-75
2023/03/14 06:43:38;;;;;;;7.00;0.82;;;6.90;99.90;;;;;;5005014;28;20046;-74
2023/03/14 06:46:04;;;;;;;6.23;1.27;;;6.80;99.90;;;;;;4977912;28;20182;-69
2023/03/14 06:48:30;;;;;;;5.72;1.05;;;6.70;99.90;;;;;;5004106;28;20041;-68
2023/03/14 06:50:56;;;;;;;11.63;1.07;;;6.50;99.90;;;;;;4981444;28;20069;-68
2023/03/14 06:53:21;;;;;;;4.80;0.83;;;6.30;99.90;;;;;;4997791;28;20046;-65
2023/03/14 06:55:50;;;;;;;6.80;0.85;;;6.20;99.90;;;;;;4996569;28;20176;-69
2023/03/14 06:58:19;;;;;;;4.50;0.67;;;6.10;99.90;;;;;;4999555;28;20121;-68
2023/03/14 07:00:47;;;;;;;4.38;0.63;;;6.00;99.90;;;;;;5001920;28;20121;-68
2023/03/14 07:03:14;;;;;;;5.93;0.60;;;5.90;99.90;;;;;;4986993;28;20219;-68
2023/03/14 07:05:43;;;;;;;4.95;0.43;;;5.80;99.90;;;;;;4994219;28;20468;-67
2023/03/14 07:08:08;;;;;;;5.78;0.63;;;5.70;99.90;;;;;;5001944;28;20088;-67
2023/03/14 07:10:35;;;;;;;2.37;0.33;;;5.60;99.90;;;;;;4998985;28;20069;-76
2023/03/14 07:13:00;;;;;;;3.90;0.40;;;5.50;99.90;;;;;;4985185;28;20128;-68
2023/03/14 07:15:29;;;;;;;2.00;0.33;;;5.40;99.90;;;;;;5005479;28;20547;-68
2023/03/14 07:17:55;;;;;;;1.38;0.82;;;5.40;99.90;;;;;;4996757;28;20409;-67
2023/03/14 07:20:21;;;;;;;1.95;0.20;;;5.30;99.90;;;;;;5010949;28;20116;-68
2023/03/14 07:22:50;;;;;;;2.70;0.30;;;5.30;99.90;;;;;;4975414;28;20148;-67
2023/03/14 07:25:16;;;;;;;0.10;0.10;;;5.20;99.90;;;;;;5006404;28;20056;-67
2023/03/14 07:27:44;;;;;;;0.52;0.20;;;5.20;99.90;;;;;;4996818;28;20053;-67
2023/03/14 07:30:11;;;;;;;1.70;0.32;;;5.20;99.90;;;;;;5013523;28;20116;-67
2023/03/14 07:32:36;;;;;;;;;;;5.20;99.90;;;;;;4991499;28;20580;-67
2023/03/14 07:35:02;;;;;;;1.58;0.32;;;5.10;99.90;;;;;;4990347;28;20016;-68
2023/03/14 07:37:31;;;;;;;2.28;0.40;;;5.10;99.90;;;;;;5008651;28;20045;-67
2023/03/14 07:39:56;;;;;;;3.22;0.60;;;5.20;99.90;;;;;;4990277;28;20072;-67
2023/03/14 07:42:22;;;;;;;2.10;0.60;;;5.20;99.90;;;;;;4998805;28;20071;-67
2023/03/14 07:44:48;;;;;;;1.13;0.33;;;5.20;99.90;;;;;;5008087;28;20096;-67
2023/03/14 07:47:13;;;;;;;5.80;0.93;;;5.20;99.90;;;;;;5008543;28;20403;-67
2023/03/14 07:49:39;;;;;;;1.27;0.60;;;5.20;99.90;;;;;;5008244;28;20042;-67
2023/03/14 07:52:05;;;;;;;2.33;0.50;;;5.20;99.90;;;;;;5004209;28;20053;-67
2023/03/14 07:54:30;;;;;;;3.77;0.60;;;5.20;99.90;;;;;;5007724;28;20519;-67
2023/03/14 07:57:00;;;;;;;7.73;0.60;;;5.20;99.90;;;;;;4990982;28;20076;-67
2023/03/14 07:59:26;;;;;;;3.55;0.60;;;5.30;99.90;;;;;;4978970;28;20122;-68
2023/03/14 08:01:52;;;;;;;1.85;0.30;;;5.30;99.90;;;;;;4989856;28;20377;-68
2023/03/14 08:04:18;;;;;;;7.07;0.97;;;5.40;99.90;;;;;;4979088;28;20340;-68
2023/03/14 08:06:43;;;;;;;8.27;0.90;;;5.40;99.90;;;;;;5002488;28;20077;-68
2023/03/14 08:09:09;;;;;;;3.17;0.37;;;5.50;99.90;;;;;;4984186;28;20283;-68
2023/03/14 08:11:35;;;;;;;5.57;0.38;;;5.50;99.90;;;;;;4995930;28;20053;-68
2023/03/14 08:14:01;;;;;;;4.80;0.88;;;5.50;99.90;;;;;;4982757;28;20050;-68
2023/03/14 08:16:27;;;;;;;1.93;0.87;;;5.60;99.90;;;;;;4990189;28;20033;-68
2023/03/14 08:18:52;;;;;;;15.40;0.73;;;5.60;99.90;;;;;;5000390;28;20046;-68
2023/03/14 08:21:18;;;;;;;1.23;0.68;;;5.60;99.90;;;;;;4983307;28;20143;-68
2023/03/14 08:23:44;;;;;;;5.50;1.13;;;5.70;99.90;;;;;;4983282;28;20426;-68
2023/03/14 08:26:10;;;;;;;5.00;0.67;;;5.70;99.90;;;;;;4991376;28;20049;-68
2023/03/14 08:28:35;;;;;;;4.00;0.77;;;5.80;99.90;;;;;;4995849;28;20062;-68
2023/03/14 08:31:02;;;;;;;5.53;0.83;;;5.80;99.90;;;;;;5000982;28;20133;-68
2023/03/14 08:33:29;;;;;;;7.07;1.35;;;5.80;99.90;;;;;;4999387;28;20623;-68
2023/03/14 08:35:55;;;;;;;;;;;5.80;99.90;;;;;;4982768;28;20503;-68
2023/03/14 08:38:21;;;;;;;1.88;0.73;;;5.90;99.90;;;;;;4997026;28;19965;-68
2023/03/14 08:40:46;;;;;;;10.63;1.23;;;5.90;99.90;;;;;;4982925;28;20292;-68
2023/03/14 08:43:12;;;;;;;10.23;1.43;;;5.90;99.90;;;;;;4994443;28;20117;-68
2023/03/14 08:45:38;;;;;;;3.67;0.93;;;5.90;99.90;;;;;;4996749;28;20454;-68
2023/03/14 08:48:04;;;;;;;4.30;1.13;;;6.00;99.90;;;;;;4976514;28;20306;-68
2023/03/14 08:50:30;;;;;;;9.82;1.67;;;6.00;99.90;;;;;;4999436;28;20193;-68
2023/03/14 08:52:58;;;;;;;4.67;0.90;;;6.10;99.90;;;;;;4980771;28;20223;-68
2023/03/14 08:55:23;;;;;;;6.15;2.05;;;6.20;99.90;;;;;;4981434;28;20052;-68
2023/03/14 08:57:52;;;;;;;3.78;1.20;;;6.30;99.90;;;;;;4999795;28;20108;-68
2023/03/14 09:00:19;;;;;;;9.40;1.27;;;6.40;99.90;;;;;;5002957;28;20125;-68
2023/03/14 09:02:44;;;;;;;7.80;1.73;;;6.40;99.90;;;;;;4979215;28;20053;-68
2023/03/14 09:05:11;;;;;;;13.20;2.03;;;6.50;99.90;;;;;;4985782;28;20038;-68
2023/03/14 09:07:38;;;;;;;24.67;1.75;;;6.60;99.90;;;;;;4998974;28;20069;-68
2023/03/14 09:10:04;;;;;;;10.35;1.40;;;6.60;99.90;;;;;;4995615;28;20038;-68
2023/03/14 09:12:32;;;;;;;12.52;1.20;;;6.60;99.90;;;;;;4999425;28;20053;-68
2023/03/14 09:14:58;;;;;;;12.82;1.38;;;6.50;99.90;;;;;;4984143;28;20053;-69
2023/03/14 09:17:24;;;;;;;9.57;1.27;;;6.50;99.90;;;;;;4984089;28;20034;-68
2023/03/14 09:19:50;;;;;;;8.85;2.10;;;6.40;99.90;;;;;;4976741;28;20123;-68
2023/03/14 09:22:20;;;;;;;7.23;1.10;;;6.40;99.90;;;;;;4998765;28;20141;-68
2023/03/14 09:24:47;;;;;;;12.98;2.10;;;6.40;99.90;;;;;;5000061;28;20411;-68
2023/03/14 09:27:12;;;;;;;13.95;2.03;;;6.40;99.90;;;;;;4994863;28;20048;-68
2023/03/14 09:29:38;;;;;;;11.33;1.93;;;6.40;99.90;;;;;;4991466;28;20488;-68
2023/03/14 09:32:04;;;;;;;14.53;2.63;;;6.40;99.90;;;;;;4991828;28;20121;-68
2023/03/14 09:34:29;;;;;;;14.20;1.33;;;6.40;99.90;;;;;;4975374;28;20128;-68
2023/03/14 09:36:55;;;;;;;9.10;1.50;;;6.50;99.90;;;;;;4994322;28;20088;-68
2023/03/14 09:39:21;;;;;;;13.43;1.73;;;6.50;99.90;;;;;;4965179;28;20046;-68
2023/03/14 09:41:50;;;;;;;11.73;2.33;;;6.50;99.90;;;;;;5003380;22;20062;-69
2023/03/14 09:44:29;;;;;;;9.10;2.15;;;6.50;99.90;;;;;;4983029;28;20522;-69
2023/03/14 09:46:58;;;;;;;11.02;1.77;;;6.50;99.90;;;;;;4986043;28;20042;-69
2023/03/14 09:49:27;;;;;;;9.15;1.85;;;6.40;99.90;;;;;;4984437;28;20403;-69
2023/03/14 09:51:54;;;;;;;14.70;1.77;;;6.40;99.90;;;;;;4993913;28;20447;-69
2023/03/14 09:54:59;;;;;;;15.32;2.55;;;6.40;99.90;;;;;;4997996;28;20042;-70
2023/03/14 09:57:26;;;;;;;12.80;1.48;;;6.50;99.90;;;;;;4983604;28;20053;-69
2023/03/14 09:59:55;;;;;;;7.78;1.20;;;6.50;99.90;;;;;;5001861;28;20052;-69
2023/03/14 10:02:24;;;;;;;7.38;1.48;;;6.50;99.90;;;;;;4999743;28;20042;-70
2023/03/14 10:04:53;;;;;;;6.63;1.73;;;6.60;99.90;;;;;;4984060;28;20042;-70
2023/03/14 10:07:28;;;;;;;7.07;1.27;;;6.60;99.90;;;;;;4986195;28;20042;-69
2023/03/14 10:09:54;;;;;;;17.30;2.08;;;6.70;99.90;;;;;;4985021;28;20053;-70
2023/03/14 10:12:29;;;;;;;8.60;1.40;;;6.80;99.90;;;;;;4997154;28;20033;-69
2023/03/14 10:14:55;;;;;;;14.52;2.22;;;6.90;99.90;;;;;;4984090;28;20124;-69
2023/03/14 10:17:21;;;;;;;9.37;1.87;;;6.90;99.90;;;;;;4982602;28;20831;-70
2023/03/14 10:19:58;;;;;;;12.37;2.00;;;6.90;99.90;;;;;;4999421;28;20043;-70
2023/03/14 10:22:32;;;;;;;11.27;1.77;;;6.90;99.90;;;;;;4976547;28;20108;-69
2023/03/14 10:25:02;;;;;;;9.13;1.40;;;6.90;99.90;;;;;;4991016;28;20146;-70
2023/03/14 10:27:34;;;;;;;7.65;1.08;;;6.80;99.90;;;;;;4977308;28;20042;-70
2023/03/14 10:30:07;;;;;;;9.65;1.50;;;6.90;99.90;;;;;;4999455;28;20064;-69
2023/03/14 10:32:37;;;;;;;9.55;1.90;;;7.00;99.90;;;;;;4985018;28;20404;-69
2023/03/14 10:35:23;;;;;;;7.45;0.85;;;7.10;99.90;;;;;;4983882;28;20100;-70
2023/03/14 10:37:52;;;;;;;8.43;1.27;;;7.20;99.90;;;;;;5000038;28;20515;-69
2023/03/14 10:40:20;;;;;;;10.93;2.15;;;7.20;99.90;;;;;;5001305;28;20096;-70
2023/03/14 10:42:49;;;;;;;10.80;1.38;;;7.10;99.90;;;;;;4984684;28;20137;-69
2023/03/14 10:45:34;;;;;;;13.43;1.20;;;7.00;99.90;;;;;;4976406;28;20574;-70
2023/03/14 10:48:26;;;;;;;4.20;1.00;;;7.10;99.90;;;;;;4999374;28;20065;-70
2023/03/14 10:51:00;;;;;;;9.68;1.25;;;7.10;99.90;;;;;;4974646;28;20066;-70
2023/03/14 10:53:26;;;;;;;4.60;0.80;;;7.20;99.90;;;;;;4981345;28;20057;-69
2023/03/14 10:55:52;;;;;;;5.38;0.93;;;7.40;99.90;;;;;;4987541;28;20033;-69
2023/03/14 10:58:28;;;;;;;2.70;1.08;;;7.60;99.90;;;;;;4981392;28;20523;-69
2023/03/14 11:01:09;;;;;;;8.85;1.40;;;7.80;99.90;;;;;;5002222;28;20121;-70
2023/03/14 11:03:37;;;;;;;14.00;1.20;;;7.90;99.90;;;;;;4988835;28;20076;-69
2023/03/14 11:06:17;;;;;;;5.00;0.90;;;7.90;99.90;;;;;;5000346;28;20375;-69
2023/03/14 11:09:02;;;;;;;5.30;0.90;;;7.60;99.90;;;;;;4985672;28;20103;-69
2023/03/14 11:11:30;;;;;;;2.75;0.52;;;7.50;99.90;;;;;;4998960;28;20080;-69
2023/03/14 11:14:19;;;;;;;7.85;0.77;;;7.30;99.90;;;;;;4988733;28;20495;-69
2023/03/14 11:17:10;;;;;;;5.32;1.10;;;7.30;99.90;;;;;;5002134;28;20084;-69
2023/03/14 11:20:01;;;;;;;8.70;1.15;;;7.30;99.90;;;;;;4986097;28;20073;-69
2023/03/14 11:22:39;;;;;;;4.22;0.90;;;7.20;99.90;;;;;;5004721;28;20100;-69
2023/03/14 11:25:36;;;;;;;5.05;0.80;;;7.10;99.90;;;;;;4986306;28;20042;-69
2023/03/14 11:28:17;;;;;;;5.15;1.27;;;7.10;99.90;;;;;;5001914;28;20496;-69
2023/03/14 11:30:50;;;;;;;5.22;0.82;;;7.20;99.90;;;;;;5004294;28;20077;-69
2023/03/14 11:33:20;;;;;;;4.65;0.63;;;7.40;99.90;;;;;;5004600;28;20042;-69
2023/03/14 11:36:04;;;;;;;5.05;1.00;;;7.50;99.90;;;;;;4998249;28;20108;-69
2023/03/14 11:38:55;;;;;;;4.25;0.85;;;7.60;99.70;;;;;;4989028;28;20598;-69
2023/03/14 11:41:31;;;;;;;1.63;0.70;;;7.70;96.80;;;;;;5003416;28;20038;-69
2023/03/14 11:43:59;;;;;;;4.25;0.60;;;7.80;98.50;;;;;;5003030;28;20046;-69
2023/03/14 11:46:38;;;;;;;2.65;0.85;;;7.90;98.70;;;;;;4986676;28;20093;-69
2023/03/14 11:49:15;;;;;;;3.83;0.80;;;8.10;98.30;;;;;;4987762;28;20057;-69
2023/03/14 11:51:46;;;;;;;1.88;0.52;;;8.20;97.90;;;;;;4989556;28;20046;-69
2023/03/14 11:54:20;;;;;;;4.63;0.77;;;8.20;95.90;;;;;;4998199;28;20399;-69
2023/03/14 11:56:59;;;;;;;5.00;0.70;;;8.30;96.20;;;;;;4993679;28;20205;-69
2023/03/14 11:59:42;;;;;;;5.35;1.13;;;8.20;96.40;;;;;;4994518;28;20425;-69
2023/03/14 12:02:39;;;;;;;3.00;1.02;;;8.20;96.10;;;;;;4982288;28;20535;-69
2023/03/14 12:05:20;;;;;;;8.03;0.80;;;8.20;97.50;;;;;;4978831;28;20054;-69
2023/03/14 12:08:08;;;;;;;6.07;1.38;;;8.20;97.50;;;;;;4983384;28;20275;-69
2023/03/14 12:10:58;;;;;;;4.68;1.25;;;8.00;97.40;;;;;;5002313;28;20476;-69
2023/03/14 12:13:29;;;;;;;6.25;1.25;;;7.80;98.10;;;;;;4999648;28;20403;-69
2023/03/14 12:16:00;;;;;;;8.55;1.00;;;7.60;98.90;;;;;;5002297;28;20053;-69
2023/03/14 12:18:32;;;;;;;7.80;0.90;;;7.50;99.80;;;;;;5004634;28;20034;-69
2023/03/14 12:21:01;;;;;;;6.25;1.08;;;7.70;99.60;;;;;;4983562;28;20342;-69
2023/03/14 12:23:27;;;;;;;4.60;1.15;;;7.80;98.90;;;;;;4985002;28;20041;-69
2023/03/14 12:26:11;;;;;;;7.07;0.82;;;7.80;98.90;;;;;;4999977;28;20034;-70
2023/03/14 12:28:38;;;;;;;6.55;1.52;;;7.70;98.30;;;;;;4987370;28;20044;-69
2023/03/14 12:31:31;;;;;;;2.13;0.50;;;7.60;97.80;;;;;;4987088;28;20088;-69
2023/03/14 12:34:09;;;;;;;10.73;1.20;;;7.60;95.70;;;;;;4983177;28;20037;-69
2023/03/14 12:36:48;;;;;;;10.20;1.40;;;7.80;96.00;;;;;;5000706;28;20531;-69
2023/03/14 12:39:22;;;;;;;8.13;1.02;;;8.00;95.60;;;;;;5002362;28;20384;-69
2023/03/14 12:42:22;;;;;;;3.75;0.98;;;8.00;94.80;;;;;;4987513;28;20042;-69
2023/03/14 12:44:49;;;;;;;12.57;1.08;;;8.00;95.10;;;;;;4996890;28;20531;-69
2023/03/14 12:47:18;;;;;;;4.75;0.73;;;7.90;95.10;;;;;;4983994;28;20420;-69
2023/03/14 12:49:53;;;;;;;7.32;0.77;;;8.00;94.90;;;;;;5001957;28;20499;-69
2023/03/14 12:52:44;;;;;;;4.78;0.77;;;8.10;93.30;;;;;;4985855;28;20053;-69
2023/03/14 12:55:38;;;;;;;3.58;0.90;;;8.10;94.10;;;;;;4986847;28;20101;-69
2023/03/14 12:58:36;;;;;;;3.17;0.50;;;8.20;90.10;;;;;;4987819;28;20508;-69
2023/03/14 13:01:04;;;;;;;3.83;0.95;;;8.20;85.30;;;;;;4986525;28;20085;-70
2023/03/14 13:03:43;;;;;;;3.75;0.63;;;8.20;90.70;;;;;;4989647;28;20042;-69